This is the latest recevied weather packets stored in our database for station/object WA1TYB-13. If no packets are shown the sender has not sent any weather packets the latest 10 day(s).
| Time | Temp. | Humidity | Pressure | Rain* | Wind** | Luminosity | Snow |
|---|---|---|---|---|---|---|---|
| 1777434727 | 5.56° C | 65% | 1020.9 hPa | 0 mm | - | 0 W/m² | - |
| 1777434426 | 5.56° C | 64% | 1020.8 hPa | 0 mm | - | 0 W/m² | - |
| 1777434124 | 5.56° C | 66% | 1020.9 hPa | 0 mm | - | 0 W/m² | - |
| 1777433821 | 5.56° C | 65% | 1020.9 hPa | 0 mm | - | 0 W/m² | - |
| 1777433517 | 6.11° C | 65% | 1020.9 hPa | 0 mm | - | 0 W/m² | - |
| 1777433212 | 5.56° C | 65% | 1020.8 hPa | 0 mm | - | 0 W/m² | - |
| 1777432909 | 5.56° C | 68% | 1020.8 hPa | 0 mm | - | 0 W/m² | - |
| 1777432608 | 5.56° C | 68% | 1020.6 hPa | 0 mm | - | 0 W/m² | - |
| 1777432306 | 6.11° C | 66% | 1020.5 hPa | 0 mm | - | 0 W/m² | - |
| 1777432004 | 5.56° C | 68% | 1020.5 hPa | 0 mm | - | 0 W/m² | - |
| 1777431701 | 5.56° C | 69% | 1020.5 hPa | 0 mm | - | 0 W/m² | - |
| 1777431397 | 5.56° C | 68% | 1020.4 hPa | 0 mm | - | 0 W/m² | - |
| 1777431093 | 6.11° C | 68% | 1020.5 hPa | 0 mm | - | 0 W/m² | - |
| 1777430789 | 6.11° C | 69% | 1020.3 hPa | 0 mm | - | 0 W/m² | - |
| 1777430486 | 6.11° C | 69% | 1020.2 hPa | 0 mm | - | 0 W/m² | - |
| 1777430181 | 6.11° C | 67% | 1020.3 hPa | 0 mm | - | 0 W/m² | - |
| 1777429876 | 6.11° C | 67% | 1020 hPa | 0 mm | - | 2 W/m² | - |
| 1777429573 | 6.67° C | 66% | 1020 hPa | 0 mm | - | 4 W/m² | - |
| 1777429270 | 6.67° C | 67% | 1019.9 hPa | 0 mm | - | 6 W/m² | - |
| 1777428964 | 7.22° C | 67% | 1020 hPa | 0 mm | - | 9 W/m² | - |
| 1777428661 | 7.78° C | 65% | 1019.9 hPa | 0 mm | - | 10 W/m² | - |
| 1777428357 | 7.78° C | 64% | 1019.9 hPa | 0 mm | - | 12 W/m² | - |
| 1777428053 | 8.33° C | 62% | 1019.8 hPa | 0 mm | - | 16 W/m² | - |
| 1777427748 | 8.89° C | 57% | 1019.7 hPa | 0 mm | - | 22 W/m² | - |
| 1777427447 | 8.89° C | 55% | 1019.7 hPa | 0 mm | - | 31 W/m² | - |
* Rain latest hour (hover to see other rain measurements)
** Current wind speed in m/s (hover to see current wind gust speed)